Aztec, NM

5:44 PM MDT on September 02, 2014 (GMT -0600)
Aztec, NM 87410 | Change Station
CLOSE
Current Station
Personal Weather Station
Location: Aztec, NM
Elevation: 5682 ft
Nearby Weather Stations

Elev 5682 ft 36.82 °N, 107.99 °W | Updated 1 minute ago

Clear
Clear
89.3 °F
Feels Like 85 °F
N
2.7
Wind Variable Wind from SSW

Today
High -- | Low -- °F
--% Chance of Precip.
Yesterday
High -- | Low -- °F
Precip. -- in
6:43 AM 7:38 PM
First Quarter, 56% visible
Pressure 29.82 in
Visibility 10.0 miles
Clouds Clear
Heat Index 85 °F
Dew Point 37 °F
Humidity 16%
Rainfall 0.00 in
Snow Depth Not available.
UV 4 out of 12
Pollen 8.70 out of 12
Air Quality Not available.
Flu Activity Not available.
METAR KFMN 022253Z 29010KT 10SM CLR 33/01 A3002 RMK AO2 SLP097 T03330006

More Conditions Fewer Conditions

Pressure 29.82 in
Visibility 10.0 miles
Clouds Clear
Heat Index 85 °F
Dew Point 37 °F
Humidity 16%
Rainfall 0.00 in
Snow Depth Not available.
UV 4 out of 12
Pollen 8.70 out of 12
Air Quality Not available.
Flu Activity Not available.
METAR KFMN 022253Z 29010KT 10SM CLR 33/01 A3002 RMK AO2 SLP097 T03330006

More Conditions Fewer Conditions

10-Day Weather Forecast

Almanac

Astronomy

Sep. 02, 2014 Rise Set
Actual Time 6:43 AM MDT 7:38 PM MDT
Civil Twilight 6:17 AM MDT 8:05 PM MDT
Nautical Twilight 5:45 AM MDT 8:36 PM MDT
Astronomical Twilight 5:13 AM MDT 9:08 PM MDT
Moon 2:20 PM MDT No Moon Set
Length of Visible Light 13h 47m
Length of Day
12h 54m
Tomorrow will be 2m 16s shorter.
First Quarter, 56% of the Moon is Illuminated
Today
First Quarter
Sep 8
Full
Sep 15
Last Quarter
Sep 24
New
Oct 1
First Quarter

Today's Extremes

State Highs State Lows

Community

WunderPhotos

Upload Photos

1,749,799 photos uploaded!

Nearby

Snow Depth

Station Depth Elevation
Quemazon 0 in 9500 ft
Santa Fe 0 in 11445 ft
Red River Pass #2 0 in 9850 ft
Wesner Springs 1 in 11120 ft
Silver Creek Divide 19 in 9000 ft

Earthquake Activity

City Distance Mag. Time & Date
No recent earthquake activity has been reported nearby.
Minimum magnitude displayed is 2.5.

Coastal Water Temperatures

Place Temperature
No Stations Reporting

Nearby Weather Stations